Terminal Aerodrome Forecast
Issued by NWS

Home | Current Version | Previous Version | Text Only | Print | Product List | Glossary On
Versions: 1 2 3 4 5 6 7 8 9 10 11 12 13 14 15 16 17 18 19 20 21 22 23 24 25 26 27 28
000
FTUS45 KLKN 071120
TAFEKO
TAF
KEKO 071120Z 0712/0812 VRB04KT P6SM SCT200
     FM080900 07006KT 5SM -SHSN BKN035 OVC200
     FM081100 07006KT 5SM -SHSN OVC025=

USA.gov is the U.S. government's official web portal to all federal, state and local government web resources and services.